Map

Track Data

SID SEASON NUMBER BASIN SUBBASIN NAME ISO_TIME NATURE LAT LON WMO_WIND WMO_PRES WMO_AGENCY TRACK_TYPE DIST2LAND LANDFALL IFLAG USA_AGENCY USA_ATCF_ID USA_LAT USA_LON USA_RECORD USA_STATUS USA_WIND USA_PRES USA_SSHS USA_R34_NE USA_R34_SE USA_R34_SW USA_R34_NW USA_R50_NE USA_R50_SE USA_R50_SW USA_R50_NW USA_R64_NE USA_R64_SE USA_R64_SW USA_R64_NW USA_POCI USA_ROCI USA_RMW USA_EYE TOKYO_LAT TOKYO_LON TOKYO_GRADE TOKYO_WIND TOKYO_PRES TOKYO_R50_DIR TOKYO_R50_LONG TOKYO_R50_SHORT TOKYO_R30_DIR TOKYO_R30_LONG TOKYO_R30_SHORT TOKYO_LAND CMA_LAT CMA_LON CMA_CAT CMA_WIND CMA_PRES HKO_LAT HKO_LON HKO_CAT HKO_WIND HKO_PRES NEWDELHI_LAT NEWDELHI_LON NEWDELHI_GRADE NEWDELHI_WIND NEWDELHI_PRES NEWDELHI_CI NEWDELHI_DP NEWDELHI_POCI REUNION_LAT REUNION_LON REUNION_TYPE REUNION_WIND REUNION_PRES REUNION_TNUM REUNION_CI REUNION_RMW REUNION_R34_NE REUNION_R34_SE REUNION_R34_SW REUNION_R34_NW REUNION_R50_NE REUNION_R50_SE REUNION_R50_SW REUNION_R50_NW REUNION_R64_NE REUNION_R64_SE REUNION_R64_SW REUNION_R64_NW BOM_LAT BOM_LON BOM_TYPE BOM_WIND BOM_PRES BOM_TNUM BOM_CI BOM_RMW BOM_R34_NE BOM_R34_SE BOM_R34_SW BOM_R34_NW BOM_R50_NE BOM_R50_SE BOM_R50_SW BOM_R50_NW BOM_R64_NE BOM_R64_SE BOM_R64_SW BOM_R64_NW BOM_ROCI BOM_POCI BOM_EYE BOM_POS_METHOD BOM_PRES_METHOD NADI_LAT NADI_LON NADI_CAT NADI_WIND NADI_PRES WELLINGTON_LAT WELLINGTON_LON WELLINGTON_WIND WELLINGTON_PRES DS824_LAT DS824_LON DS824_STAGE DS824_WIND DS824_PRES TD9636_LAT TD9636_LON TD9636_STAGE TD9636_WIND TD9636_PRES TD9635_LAT TD9635_LON TD9635_WIND TD9635_PRES TD9635_ROCI NEUMANN_LAT NEUMANN_LON NEUMANN_CLASS NEUMANN_WIND NEUMANN_PRES MLC_LAT MLC_LON MLC_CLASS MLC_WIND MLC_PRES USA_GUST BOM_GUST BOM_GUST_PER REUNION_GUST REUNION_GUST_PER USA_SEAHGT USA_SEARAD_NE USA_SEARAD_SE USA_SEARAD_SW USA_SEARAD_NW STORM_SPEED STORM_DIR
2022044S15061 2022 5 SI MM DUMAKO 2022-02-13 06:00:00 NR -14.9000 60.9000 PROVISIONAL 673 614 O_____________ tcvitals SI122022 -14.9000 60.9000 35 1000 0 25 1007 95 25 12 201
2022044S15061 2022 5 SI MM DUMAKO 2022-02-13 09:00:00 NR -15.4619 60.6807 PROVISIONAL 604 548 P_____________ SI122022 -15.4619 60.6807 35 999 0 25 1005 92 25 11 217
2022044S15061 2022 5 SI MM DUMAKO 2022-02-13 12:00:00 NR -15.8000 60.2000 PROVISIONAL 548 513 O_____________ tcvitals SI122022 -15.8000 60.2000 35 998 0 25 20 1003 90 25 14 256
2022044S15061 2022 5 SI MM DUMAKO 2022-02-13 15:00:00 NR -15.7884 59.3089 PROVISIONAL 510 497 P_____________ SI122022 -15.7884 59.3089 40 997 0 32 27 1003 100 22 18 273
2022044S15061 2022 5 SI MM DUMAKO 2022-02-13 18:00:00 NR -15.7000 58.3000 PROVISIONAL 496 481 O_____________ tcvitals SI122022 -15.7000 58.3000 45 996 0 40 35 1004 110 20 17 268
2022044S15061 2022 5 SI MM DUMAKO 2022-02-13 21:00:00 NR -15.8618 57.5277 PROVISIONAL 469 452 P_____________ SI122022 -15.8618 57.5277 45 998 0 42 37 1005 120 20 15 255
2022044S15061 2022 5 SI MM DUMAKO 2022-02-14 00:00:00 NR -16.1000 56.8000 PROVISIONAL 453 446 O_____________ tcvitals SI122022 -16.1000 56.8000 45 1000 0 20 45 40 25 1007 130 20 16 253
2022044S15061 2022 5 SI MM DUMAKO 2022-02-14 03:00:00 NR -16.3076 55.9775 PROVISIONAL 453 451 P_____________ SI122022 -16.3076 55.9775 48 998 0 20 52 42 27 1007 128 17 16 255
2022044S15061 2022 5 SI MM DUMAKO 2022-02-14 06:00:00 NR -16.5000 55.2000 PROVISIONAL 470 461 O_____________ tcvitals SI122022 -16.5000 55.2000 51 996 0 20 60 45 30 1007 126 14 14 255
2022044S15061 2022 5 SI MM DUMAKO 2022-02-14 09:00:00 NR -16.6873 54.5401 PROVISIONAL 451 405 P_____________ SI122022 -16.6873 54.5401 48 997 0 20 62 52 35 1006 130 19 12 255
2022044S15061 2022 5 SI MM DUMAKO 2022-02-14 12:00:00 NR -16.8000 54.0000 PROVISIONAL 405 366 O_____________ tcvitals SI122022 -16.8000 54.0000 45 998 0 20 65 60 40 1005 135 25 9 265
2022044S15061 2022 5 SI MM DUMAKO 2022-02-14 15:00:00 NR -16.7720 53.5998 PROVISIONAL 366 323 P_____________ SI122022 -16.7720 53.5998 45 999 0 30 67 62 42 1007 122 25 8 277
2022044S15061 2022 5 SI MM DUMAKO 2022-02-14 18:00:00 NR -16.7000 53.2000 PROVISIONAL 323 274 O_____________ tcvitals SI122022 -16.7000 53.2000 45 1001 0 40 70 65 45 1009 110 25 9 276
2022044S15061 2022 5 SI MM DUMAKO 2022-02-14 21:00:00 NR -16.6781 52.6590 PROVISIONAL 274 207 P_____________ SI122022 -16.6773 52.6598 45 1001 0 30 60 60 37 1009 110 25 12 270
2022044S15061 2022 5 SI MM DUMAKO 2022-02-15 00:00:00 NR -16.7000 52.0000 PROVISIONAL 207 139 O_____________ tcvitals SI122022 -16.7000 52.0000 45 1001 0 20 50 55 30 1009 110 25 14 266
2022044S15061 2022 5 SI MM DUMAKO 2022-02-15 03:00:00 NR -16.7855 51.1777 PROVISIONAL 139 64 P_____________ SI122022 -16.7855 51.1777 45 1000 0 20 57 52 27 1008 102 19 15 263
2022044S15061 2022 5 SI MM DUMAKO 2022-02-15 06:00:00 NR -16.9000 50.4000 PROVISIONAL 64 24 O_____________ tcvitals SI122022 -16.9000 50.4000 45 1000 0 20 65 50 25 1008 95 14 12 260
2022044S15061 2022 5 SI MM DUMAKO 2022-02-15 09:00:00 NR -17.0069 49.9049 PROVISIONAL 24 10 P_____________ SI122022 -17.0069 49.9049 42 997 0 32 67 62 35 1007 90 14 9 257
2022044S15061 2022 5 SI MM DUMAKO 2022-02-15 12:00:00 NR -17.1000 49.5000 PROVISIONAL 10 0 O_____________ tcvitals SI122022 -17.1000 49.5000 39 995 0 45 70 75 45 1007 85 14 9 259
2022044S15061 2022 5 SI MM DUMAKO 2022-02-15 15:00:00 NR -17.1724 49.0150 PROVISIONAL 0 0 P_____________ SI122022 -17.1724 49.0150 37 998 0 42 60 65 50 1007 85 17 10 264
2022044S15061 2022 5 SI MM DUMAKO 2022-02-15 18:00:00 NR -17.2000 48.5000 PROVISIONAL 0 0 O_____________ tcvitals SI122022 -17.2000 48.5000 35 1002 0 40 50 55 55 1007 85 20 10 270
2022044S15061 2022 5 SI MM DUMAKO 2022-02-15 21:00:00 NR -17.1648 47.9649 PROVISIONAL 0 0 P_____________ SI122022 -17.1648 47.9649 32 1002 -1 1007 85 22 11 275
2022044S15061 2022 5 SI MM DUMAKO 2022-02-16 00:00:00 NR -17.1000 47.4000 PROVISIONAL 0 0 O_____________ tcvitals SI122022 -17.1000 47.4000 29 1003 -1 1007 85 25 11 275
2022044S15061 2022 5 SI MM DUMAKO 2022-02-16 03:00:00 NR -17.0647 46.8302 PROVISIONAL 0 0 P_____________ SI122022 -17.0647 46.8302 27 1003 -1 1008 85 25 12 275
2022044S15061 2022 5 SI MM DUMAKO 2022-02-16 06:00:00 NR -17.0000 46.2000 PROVISIONAL 0 0 O_____________ tcvitals SI122022 -17.0000 46.2000 25 1004 -1 1009 85 25 13 279
2022044S15061 2022 5 SI MM DUMAKO 2022-02-16 09:00:00 NR -16.8707 45.4771 PROVISIONAL 0 0 P_____________ SI122022 -16.8707 45.4771 25 1004 -1 1007 85 25 15 282
2022044S15061 2022 5 SI MM DUMAKO 2022-02-16 12:00:00 NR -16.7000 44.7000 PROVISIONAL 0 O_____________ tcvitals SI122022 -16.7000 44.7000 25 1004 -1 1006 85 25 15 283

About IBTrACS Database

This database is a web-friendly format of International Best Track Archive for Climate Stewardship (IBTrACS), a global best track data archive curated by NOAA dating back to 1842.

Updated: 2022-11-16